Lull, Texas
Current Conditions -  °F | °C
As of 7:31 PM on Thursday 18 Dec 2014 (Local Time) from KMFE Reporting Station
Light Rain Light Rain  
Wind Chill: 63°   Ceiling: 300
Heat Index: 63°   Visibility: 2.5mi
Dew Point: 63°   Wind: 5mph
Humidity: 100%   Direction: 280°W
Pressure: 30"   Gusts: NA
Location:  26.2938°N, 98.1548°W
Report Text: KMFE 190131Z 28004KT 2 1/2SM -RA BR BKN003 OVC014 17/17 A3000 RMK AO2 P0002 T01720172
Loading
Personal Weather Stations






























Interactive Weather Map New forecast layout! Learn more

10-Day Weather Forecast

Advertisements
Track Severe Weather on mobile